x

Norfolk, Va (44059) Weather Station

8:50pm - Thu 24th Apr 2014 All times are EDT. -4 hours from GMT.

  • Wind
    9mph, 11mph gusts
  • Air Temp 57°f
  • Sea Pressure 1016.3mb
  • Norfolk, Va
  • Norfolk, Va

More Historic Weather Station data

Upgrade to MSW Pro to gain access to the past 30 days of data for over 8000 Wavebouys and Weather Stations around the globe.

Join Pro

Comparision Forecast

View Surf forecast
   
Thu 04/24 8:50pm 9 11 mph 1016.3mb - 57f
8:40pm 9 11 mph 1016.1mb - 57f
8:30pm 9 11 mph 1016mb - 58f
8:20pm 7 11 mph 1015.8mb - 60f
8:10pm  -  2 mph 1015.7mb - 61f
8:00pm  -  2 mph 1015.5mb 58f 61f
7:50pm  -  mph 1015.5mb - 62f
7:40pm  -  2 mph 1015.5mb - 62f
7:30pm  -  mph 1015.5mb - 62f
7:20pm  -  2 mph 1015.4mb - 62f
7:10pm 2
mph
1015.3mb - 62f
7:00pm 2
mph
1015.3mb 59f 62f
6:50pm 2 4 mph 1015.3mb - 62f
6:40pm 2 4 mph 1015.4mb - 63f
6:30pm 2 4 mph 1015.4mb - 63f
6:20pm 4 7 mph 1015.3mb - 63f
6:10pm 4 7 mph 1015.2mb - 63f
6:00pm 4 7 mph 1015.1mb 59f 63f
5:50pm 4 7 mph 1015.2mb - 63f
5:40pm 4 7 mph 1015.2mb - 63f
5:30pm 7
mph
1015.2mb - 63f
5:20pm 7 9 mph 1015.2mb - 63f
5:10pm 7 9 mph 1015.2mb - 62f
5:00pm 7 11 mph 1015.2mb 59f 62f
4:50pm 7 11 mph 1015.2mb - 62f
4:40pm 7 11 mph 1015.2mb - 62f
4:30pm 7 9 mph 1015.3mb - 62f
4:20pm 7 9 mph 1015.4mb - 62f
4:10pm 7 13 mph 1015.5mb - 61f
4:00pm 7 13 mph 1015.6mb 58f 61f
3:50pm 7 11 mph 1015.7mb - 60f
3:40pm 9 11 mph 1015.8mb - 60f
3:30pm 7 9 mph 1016mb - 60f
3:20pm 7 11 mph 1016.1mb - 60f
3:10pm 7 9 mph 1016.3mb - 60f
3:00pm 7 11 mph 1016.4mb 58f 59f
2:50pm 9 11 mph 1016.6mb - 59f
2:40pm 9 13 mph 1016.8mb - 59f
2:30pm 11 16 mph 1016.9mb - 59f
2:20pm 9 13 mph 1017mb - 58f
2:10pm 9 16 mph 1017.2mb - 58f
2:00pm 9 13 mph 1017.3mb 59f 58f
1:50pm 9 13 mph 1017.4mb - 58f
1:40pm 9 13 mph 1017.5mb - 58f
1:30pm 7 11 mph 1017.7mb - 57f
1:20pm 9 16 mph 1017.8mb - 57f
1:10pm 11 13 mph 1017.9mb - 56f
1:00pm 9 13 mph 1018.1mb 58f 56f
12:50pm 7 11 mph 1018.2mb - 56f
12:40pm 7 11 mph 1018.2mb - 55f
12:30pm 7 11 mph 1018.3mb - 55f
12:20pm 7 11 mph 1018.5mb - 55f
12:10pm 7 11 mph 1018.7mb - 54f
12:00pm 7 13 mph 1018.9mb 58f 54f
11:50am 7 11 mph 1018.9mb - 53f
11:40am 9 13 mph 1019.1mb - 53f
11:30am 9 13 mph 1019.1mb - 53f
11:20am 9 13 mph 1019mb - 53f
11:10am 9 13 mph 1019.1mb - 53f
11:00am 9 13 mph 1019.2mb 57f 53f
10:50am 11 13 mph 1019.3mb - 52f
10:40am 11 16 mph 1019.3mb - 52f
10:30am 11 13 mph 1019.4mb - 52f
10:20am 11 16 mph 1019.4mb - 52f
10:10am 11 16 mph 1019.3mb - 52f
10:00am 11 18 mph 1019.4mb 57f 51f
9:50am 11 18 mph 1019.3mb - 51f
9:40am 11 16 mph 1019.2mb - 51f
9:30am 13 18 mph 1019.1mb - 51f
9:20am 13 18 mph 1019mb - 51f
9:10am 13 18 mph 1018.9mb - 51f
9:00am 13 20 mph 1018.9mb 57f 51f
8:50am 13 18 mph 1018.9mb - 51f
8:40am 13 20 mph 1018.9mb - 51f
8:30am 16 20 mph 1018.7mb - 50f
8:20am 16 22 mph 1018.5mb - 50f
8:10am 16 22 mph 1018.3mb - 50f
8:00am 16 20 mph 1018.2mb 57f 50f
7:50am 16 22 mph 1018.2mb - 50f
7:40am 13 20 mph 1018.1mb - 50f
7:30am 13 18 mph 1018mb - 50f
7:20am 13 18 mph 1017.9mb - 50f
7:10am 13 18 mph 1017.8mb - 50f
7:00am 11 16 mph 1017.7mb 57f 49f
6:50am 13 18 mph 1017.6mb - 49f
6:40am 11 20 mph 1017.5mb - 49f
6:30am 13 18 mph 1017.4mb - 49f
6:20am 11 16 mph 1017.2mb - 49f
6:10am 11 16 mph 1017mb - 49f
6:00am 11 16 mph 1016.8mb 57f 49f
5:50am 13 18 mph 1016.6mb - 50f
5:40am 13 18 mph 1016.4mb - 50f
5:30am 13 18 mph 1016.3mb - 50f
5:20am 16 20 mph 1016.3mb - 50f
5:10am 13 18 mph 1016.3mb - 50f
5:00am 13 20 mph 1016.3mb 57f 50f
4:50am 13 16 mph 1016.3mb - 50f
4:40am 16 20 mph 1016.1mb - 51f
4:30am 16 22 mph 1016mb - 51f
4:20am 16 20 mph 1015.9mb - 51f
4:10am 16 22 mph 1015.8mb - 51f
4:00am 16 22 mph 1015.7mb 57f 51f
3:50am 16 20 mph 1015.6mb - 51f
3:40am 13 18 mph 1015.5mb - 52f
3:30am 16 20 mph 1015.4mb - 52f
3:20am 16 22 mph 1015.5mb - 52f
3:10am 16 22 mph 1015.3mb - 52f
3:00am 16 20 mph 1015.3mb 57f 52f
2:50am 16 22 mph 1015.2mb - 53f
2:40am 16 22 mph 1015.2mb - 53f
2:30am 13 20 mph 1015.1mb - 53f
2:20am 16 25 mph 1015mb - 53f
2:10am 16 25 mph 1015mb - 53f
2:00am 16 25 mph 1014.9mb 57f 54f
1:50am 18 22 mph 1014.9mb - 54f
1:40am 16 25 mph 1014.8mb - 54f
1:30am 13 18 mph 1014.7mb - 54f
1:20am 16 22 mph 1014.5mb - 55f
1:10am 18 25 mph 1014.3mb - 55f
1:00am 20 29 mph 1014.3mb 58f 55f
12:50am 18 25 mph 1014.3mb - 55f
12:40am 18 27 mph 1014.2mb - 56f
12:30am 16 22 mph 1014.1mb - 56f
12:20am 16 22 mph 1013.9mb - 56f
12:10am 16 22 mph 1013.7mb - 57f
12:00am 16 22 mph 1013.5mb 57f 57f
Wed 04/23 11:50pm 16 20 mph 1013.4mb - 57f
11:40pm 16 22 mph 1013.3mb - 57f
11:30pm 13 20 mph 1013.3mb - 57f
11:20pm 16 25 mph 1013.1mb - 58f
11:10pm 16 22 mph 1012.9mb - 58f
11:00pm 16 20 mph 1012.8mb 57f 58f
10:50pm 16 22 mph 1012.8mb - 58f
10:40pm 16 20 mph 1012.8mb - 58f
10:30pm 16 22 mph 1012.8mb - 58f
10:20pm 13 18 mph 1012.6mb - 58f
10:10pm 7 11 mph 1012.3mb - 59f
10:00pm 11 18 mph 1012.2mb 58f 59f
9:50pm 9 13 mph 1012.1mb - 59f
9:40pm 11 13 mph 1012mb - 59f
9:30pm 11 16 mph 1011.8mb - 59f
9:20pm 11 13 mph 1011.6mb - 60f
9:10pm 9 11 mph 1011.5mb - 60f
9:00pm 9 13 mph 1011.3mb 58f 60f
8:50pm 9 13 mph 1011mb - 61f
8:40pm 11 13 mph 1010.7mb - 61f
8:30pm 11 18 mph 1010.4mb - 62f
8:20pm 9 13 mph 1010.1mb - 61f
8:10pm 9 13 mph 1009.9mb - 62f
8:00pm 11 16 mph 1009.7mb 58f 62f
7:50pm 11 16 mph 1009.5mb - 62f
7:40pm 13 18 mph 1009.4mb - 62f
7:30pm 9 13 mph 1009.3mb - 62f
7:20pm 11 18 mph 1009.2mb - 63f
7:10pm 9 18 mph 1009.2mb - 63f
7:00pm 9 16 mph 1009.1mb 58f 63f
6:50pm 9 13 mph 1009mb - 63f
6:40pm 11 22 mph 1008.8mb - 64f
6:30pm 13 22 mph 1008.7mb - 64f
6:20pm 16 22 mph 1008.6mb - 64f
6:10pm 13 22 mph 1008.5mb - 64f
6:00pm 16 22 mph 1008.5mb 58f 64f
5:50pm 16 20 mph 1008.3mb - 64f
5:40pm 13 20 mph 1008.2mb - 64f
5:30pm 11 20 mph 1008mb - 63f
5:20pm 16 22 mph 1007.8mb - 63f
5:10pm 16 22 mph 1007.7mb - 63f
5:00pm 16 25 mph 1007.7mb 59f 63f
4:50pm 13 22 mph 1007.7mb - 63f
4:40pm 13 22 mph 1007.8mb - 63f
4:30pm 16 25 mph 1007.6mb - 63f
4:20pm 16 22 mph 1007.6mb - 63f
4:10pm 16 25 mph 1007.7mb - 63f
4:00pm 11 18 mph 1007.6mb 60f 62f
3:50pm 13 22 mph 1007.3mb - 62f
3:40pm 16 25 mph 1007.1mb - 62f
3:30pm 16 22 mph 1007.3mb - 62f
3:20pm 13 25 mph 1007.4mb - 62f
3:10pm 16 20 mph 1007.4mb - 62f
3:00pm 13 22 mph 1007.4mb 58f 61f
2:50pm 13 22 mph 1007.4mb - 61f
2:40pm 16 27 mph 1007.4mb - 61f
2:30pm 16 25 mph 1007.3mb - 61f
2:20pm 13 20 mph 1007.4mb - 61f
2:10pm 16 25 mph 1007.4mb - 61f
2:00pm 16 25 mph 1007.4mb 59f 60f
1:50pm 13 22 mph 1007.3mb - 61f
1:40pm 16 27 mph 1007.4mb - 61f
1:30pm 16 27 mph 1007.4mb - 61f
1:20pm 13 25 mph 1007.4mb - 60f
1:10pm 13 25 mph 1007.5mb - 61f
1:00pm 13 20 mph 1007.5mb 58f 60f
12:50pm 13 18 mph 1007.5mb - 60f
12:40pm 16 22 mph 1007.6mb - 60f
12:30pm 13 22 mph 1007.6mb - 60f
12:20pm 13 25 mph 1007.6mb - 60f
12:10pm 13 22 mph 1007.6mb - 60f
12:00pm 13 20 mph 1007.7mb 58f 59f
11:50am 13 20 mph 1007.8mb - 59f
11:40am 13 20 mph 1007.8mb - 58f
11:30am 16 22 mph 1007.9mb - 58f
11:20am 13 20 mph 1007.9mb - 58f
11:10am 13 18 mph 1007.8mb - 58f
11:00am 13 20 mph 1007.9mb 57f 58f
10:50am 11 18 mph 1007.8mb - 57f
10:40am 11 18 mph 1007.8mb - 57f
10:30am 11 18 mph 1007.8mb - 57f
10:20am 11 20 mph 1007.8mb - 57f
10:10am 11 16 mph 1007.8mb - 57f
10:00am 13 22 mph 1007.7mb 57f 57f
9:50am 13 20 mph 1007.5mb - 57f
9:40am 13 22 mph 1007.4mb - 57f
9:30am 16 22 mph 1007.3mb - 57f
9:20am 18 25 mph 1007.1mb - 57f
9:10am 16 20 mph 1006.9mb - 56f
9:00am 16 22 mph 1006.8mb 57f 56f
8:50am 18 25 mph 1006.7mb - 56f
8:40am 16 22 mph 1006.7mb - 56f
8:30am 16 22 mph 1006.6mb - 56f
8:20am 16 22 mph 1006.4mb - 56f
8:10am 16 22 mph 1006.4mb - 56f
8:00am 18 25 mph 1006.3mb 57f 56f
7:50am 16 22 mph 1006.2mb - 57f
7:40am 18 25 mph 1006mb - 57f
7:30am 18 22 mph 1005.8mb - 57f
7:20am 18 22 mph 1005.7mb - 56f
7:10am 13 20 mph 1005.5mb - 57f
7:00am 16 22 mph 1005.4mb 57f 57f
6:50am 16 22 mph 1005.1mb - 57f
6:40am 16 22 mph 1004.9mb - 57f
6:30am 18 22 mph 1004.7mb - 58f
6:20am 16 25 mph 1004.5mb - 58f
6:10am 13 20 mph 1004.4mb - 58f
6:00am 13 20 mph 1004.2mb 57f 58f
5:50am 13 18 mph 1004mb - 59f
5:40am 13 18 mph 1003.8mb - 59f
5:30am 13 20 mph 1003.6mb - 60f
5:20am 16 25 mph 1003.5mb - 60f
5:10am 16 22 mph 1003.4mb - 60f
5:00am 13 20 mph 1003.4mb 58f 61f
4:50am 13 20 mph 1003.3mb - 61f
4:40am 13 22 mph 1003mb - 61f
4:30am 13 20 mph 1002.8mb - 62f
4:20am 11 16 mph 1002.7mb - 62f
4:10am 11 16 mph 1002.5mb - 62f
4:00am 11 20 mph 1002.4mb 58f 62f
3:50am 13 18 mph 1002.4mb - 62f
3:40am 9 13 mph 1002mb - 63f
3:30am 7 11 mph 1001.9mb - 63f
3:20am 4 9 mph 1001.8mb - 63f
3:10am 4 7 mph 1001.6mb - 63f
3:00am 4 7 mph 1001.5mb 58f 64f
2:50am 4 7 mph 1001.4mb - 64f
2:40am 4 11 mph 1001.4mb - 65f
2:30am 4 9 mph 1001.4mb - 65f
2:20am 4 7 mph 1001.5mb - 65f
2:10am 2 4 mph 1001.6mb - 65f
2:00am 2 9 mph 1001.6mb 58f 65f
1:50am 4 9 mph 1001.7mb - 66f
1:40am 2 9 mph 1001.8mb - 66f
1:30am 2 7 mph 1001.8mb - 66f
1:20am 2 7 mph 1001.8mb - 67f
1:10am 4
mph
1001.8mb - 67f
1:00am 2 7 mph 1001.9mb 57f 67f
12:50am 2 7 mph 1001.9mb - 67f
12:40am 4 7 mph 1002mb - 68f
12:30am 4 7 mph 1002mb - 68f
12:20am 2 4 mph 1002.1mb - 68f
12:10am 4 7 mph 1002.2mb - 69f
12:00am 2 9 mph 1002.1mb 57f 69f
Tue 04/22 11:50pm 2 4 mph 1002.2mb - 69f
11:40pm 2 4 mph 1002.3mb - 69f
11:30pm 2 7 mph 1002.2mb - 69f
11:20pm 2 7 mph 1002.2mb - 69f
11:10pm 2 7 mph 1002.2mb - 68f
11:00pm 2
mph
1002.1mb 57f 67f
10:50pm 2 4 mph 1002.1mb - 67f
10:40pm  -  2 mph 1002.2mb - 68f
10:30pm 2
mph
1002.2mb - 68f
10:20pm  -  2 mph 1002.2mb - 68f
10:10pm  -  2 mph 1002.2mb - 67f
10:00pm  -  2 mph 1002.2mb 57f 67f
9:50pm  -  2 mph 1002.3mb - 67f
9:40pm  -  2 mph 1002.3mb - 69f
9:30pm 2
mph
1002.3mb - 69f
9:20pm 2
mph
1002.2mb - 70f
9:10pm 2
mph
1002.2mb - 70f
9:00pm 2 4 mph 1002mb 57f 69f
8:50pm 2 4 mph 1001.9mb - 69f
8:40pm 2 4 mph 1001.8mb - 69f
8:30pm 2 4 mph 1001.8mb - 70f
8:20pm 2 4 mph 1001.7mb - 71f
8:10pm 2 4 mph 1001.7mb - 71f
8:00pm 4
mph
1001.5mb 57f 71f
7:50pm 4 7 mph 1001.4mb - 71f
7:40pm 7 9 mph 1001.3mb - 72f
7:30pm 4 9 mph 1001.2mb - 74f
7:20pm 4 7 mph 1001.2mb - 74f
7:10pm 7 9 mph 1001.2mb - 76f
7:00pm 4 9 mph 1001.1mb 58f 78f
6:50pm 4 9 mph 1001mb - 78f
6:40pm 4 7 mph 1001mb - 79f
6:30pm 4 9 mph 1001mb - 79f
6:20pm 7 11 mph 1001mb - 80f
6:10pm 7 11 mph 1001mb - 80f
6:00pm 7 13 mph 1001mb 58f 80f
5:50pm 7 11 mph 1001mb - 80f
5:40pm 7 13 mph 1001mb - 80f
5:30pm 7 13 mph 1001mb - 81f
5:20pm 9 18 mph 1001.1mb - 81f
5:10pm 7 11 mph 1001.1mb - 81f
5:00pm 9 16 mph 1001.3mb 58f 80f
4:50pm 7 11 mph 1001.3mb - 81f
4:40pm 9 16 mph 1001.4mb - 81f
4:30pm 7 13 mph 1001.4mb - 80f
4:20pm 7 18 mph 1001.4mb - 80f
4:10pm 4 11 mph 1001.5mb - 80f
4:00pm 9 16 mph 1001.6mb 58f 80f
3:50pm 4 13 mph 1001.7mb - 79f
3:40pm 7 13 mph 1001.8mb - 79f
3:30pm 9 18 mph 1002mb - 79f
3:20pm 9 18 mph 1002.2mb - 79f
3:10pm 9 16 mph 1002.3mb - 78f
3:00pm 9 16 mph 1002.5mb 59f 78f
2:50pm 11 18 mph 1002.6mb - 78f
2:40pm 9 16 mph 1002.8mb - 77f
2:30pm 9 13 mph 1003mb - 77f
2:20pm 7 13 mph 1003.2mb - 76f
2:10pm 7 13 mph 1003.4mb - 76f
2:00pm 7 13 mph 1003.5mb 58f 76f
1:50pm 9 13 mph 1003.7mb - 75f
1:40pm 11 18 mph 1003.7mb - 74f
1:30pm 11 16 mph 1003.6mb - 74f
1:20pm 11 16 mph 1003.8mb - 74f
1:10pm 9 20 mph 1004.1mb - 74f
1:00pm 9 13 mph 1004.3mb 57f 74f
12:50pm 9 16 mph 1004.5mb - 73f
12:40pm 11 13 mph 1004.7mb - 73f
12:30pm 9 13 mph 1004.9mb - 72f
12:20pm 11 16 mph 1005.1mb - 72f
12:10pm 11 16 mph 1005.4mb - 71f
12:00pm 9 13 mph 1005.5mb 57f 70f
11:50am 9 16 mph 1005.8mb - 70f
11:40am 11 16 mph 1006mb - 69f
11:30am 9 18 mph 1006.2mb - 69f
11:20am 11 18 mph 1006.3mb - 69f
11:10am 11 16 mph 1006.5mb - 68f
11:00am 9 11 mph 1006.5mb 57f 67f
10:50am 9 13 mph 1006.7mb - 67f
10:40am 9 13 mph 1006.8mb - 66f
10:30am 9 13 mph 1006.9mb - 65f
10:20am 9 13 mph 1007mb - 64f
10:10am 11 13 mph 1007.1mb - 63f
10:00am 9 13 mph 1007.3mb 56f 62f
9:50am 9 13 mph 1007.4mb - 62f
9:40am 9 11 mph 1007.6mb - 61f
9:30am 11 13 mph 1007.7mb - 60f
9:20am 9 13 mph 1007.9mb - 60f
9:10am 7 11 mph 1007.9mb - 59f
9:00am 7 13 mph 1008.1mb 56f 58f
8:50am 7 11 mph 1008.2mb - 57f
8:40am 7 11 mph 1008.4mb - 56f
8:30am 7 11 mph 1008.5mb - 55f
8:20am 7 9 mph 1008.6mb - 54f
8:10am 4 7 mph 1008.6mb - 53f
8:00am 4 7 mph 1008.6mb 55f 52f
7:50am 7 9 mph 1008.5mb - 52f
7:40am 7 9 mph 1008.5mb - 51f
7:30am 7 9 mph 1008.6mb - 50f
7:20am 4 7 mph 1008.8mb - 50f
7:10am 4
mph
1008.6mb - 50f
7:00am 7
mph
1008.5mb 56f 49f
6:50am 4 7 mph 1008.6mb - 50f
6:40am 2 4 mph 1008.7mb - 49f
6:30am 4
mph
1008.9mb - 48f
6:20am 4
mph
1009mb - 48f
6:10am 4 7 mph 1009.1mb - 48f
6:00am 4 7 mph 1009.3mb 55f 48f
5:50am 4 7 mph 1009.3mb - 48f
5:40am 4
mph
1009.1mb - 48f
5:30am 4
mph
1009.1mb - 48f
5:20am 2 4 mph 1009mb - 49f
5:10am 2 4 mph 1008.9mb - 49f
5:00am 2 4 mph 1009.1mb 55f 48f
4:50am 2 4 mph 1009.2mb - 48f
4:40am 4
mph
1009.2mb - 48f
4:30am 4
mph
1009.3mb - 49f
4:20am 2 4 mph 1009.5mb - 49f
4:10am 2
mph
1009.5mb - 49f
4:00am 4
mph
1009.7mb 56f 49f
3:50am 2 4 mph 1009.9mb - 49f
3:40am 2 4 mph 1010mb - 49f
3:30am 2 4 mph 1010mb - 49f
3:20am 2
mph
1010.1mb - 49f
3:10am 2
mph
1010.2mb - 49f
3:00am 2
mph
1010.4mb 56f 49f
2:50am 2 4 mph 1010.5mb - 49f
2:40am 2
mph
1010.4mb - 49f
2:30am 2
mph
1010.6mb - 49f
2:20am 2
mph
1010.7mb - 49f
2:10am 2
mph
1010.9mb - 50f
2:00am 2
mph
1011.1mb 56f 50f
1:50am 2 4 mph 1011.3mb - 51f
1:40am  -  2 mph 1011.3mb - 51f
1:30am  -  2 mph 1011.4mb - 51f
1:20am 2
mph
1011.6mb - 51f
1:10am 2
mph
1011.7mb - 51f
1:00am 2
mph
1011.8mb 56f 51f
12:50am 2 4 mph 1012mb - 51f
12:40am 2 4 mph 1012.1mb - 51f
12:30am 4 7 mph 1012.2mb - 51f
12:20am 4
mph
1012.3mb - 52f
12:10am 4
mph
1012.3mb - 52f
12:00am 2 4 mph 1012.3mb 56f 52f
Mon 04/21 11:50pm 4 7 mph 1012.4mb - 53f
11:40pm 4
mph
1012.5mb - 53f
11:30pm 4
mph
1012.6mb - 53f
11:20pm 4 7 mph 1012.7mb - 53f
11:10pm 4 7 mph 1012.8mb - 53f
11:00pm 4 7 mph 1012.9mb 56f 54f
10:50pm 4 7 mph 1013mb - 54f
10:40pm 7 9 mph 1013.1mb - 54f
10:30pm 7 9 mph 1013.1mb - 54f
10:20pm 7 9 mph 1013.2mb - 55f
10:10pm 7 9 mph 1013.3mb - 55f
10:00pm 4 7 mph 1013.5mb 56f 55f
9:50pm 4 7 mph 1013.6mb - 55f
9:40pm 4 7 mph 1013.7mb - 55f
9:30pm 2 7 mph 1013.8mb - 55f
9:20pm 4 7 mph 1013.8mb - 55f
9:10pm 4 7 mph 1013.8mb - 56f
9:00pm 4 7 mph 1013.8mb 56f 56f
8:50pm 4 7 mph 1013.8mb - 56f
8:40pm 4 7 mph 1013.7mb - 56f
8:30pm 4 7 mph 1013.7mb - 56f
8:20pm 4 9 mph 1013.7mb - 56f
8:10pm 4 7 mph 1013.7mb - 56f
8:00pm 7 9 mph 1013.8mb 56f 57f
7:50pm 4 7 mph 1013.8mb - 57f
7:40pm 7 9 mph 1013.8mb - 57f
7:30pm 7 9 mph 1013.9mb - 58f
7:20pm 4 7 mph 1013.8mb - 58f
7:10pm 4 7 mph 1013.9mb - 58f
7:00pm 7 11 mph 1013.9mb 56f 59f
6:50pm 7 11 mph 1014mb - 59f
6:40pm 7 13 mph 1014.1mb - 59f
6:30pm 9 13 mph 1014.1mb - 59f
6:20pm 9 13 mph 1014.2mb - 59f
6:10pm 9 13 mph 1014.2mb - 59f
6:00pm 7 13 mph 1014.4mb 57f 60f
5:50pm 7 9 mph 1014.5mb - 60f
5:40pm 7 11 mph 1014.6mb - 60f
5:30pm 7 11 mph 1014.8mb - 60f
5:20pm 7 9 mph 1014.9mb - 60f
5:10pm 7 9 mph 1015mb - 59f
5:00pm 9 11 mph 1015mb 56f 59f
4:50pm 9 13 mph 1015.1mb - 59f
4:40pm 9 13 mph 1015.2mb - 59f
4:30pm 7 13 mph 1015.4mb - 59f
4:20pm 9 13 mph 1015.5mb - 59f
4:10pm 9 13 mph 1015.5mb - 58f
4:00pm 11 16 mph 1015.6mb 56f 58f
3:50pm 9 16 mph 1015.6mb - 58f
3:40pm 9 13 mph 1015.9mb - 58f
3:30pm 9 13 mph 1016.1mb - 58f
3:20pm 11 16 mph 1016.3mb - 58f
3:10pm 9 13 mph 1016.5mb - 57f
3:00pm 9 16 mph 1016.6mb 56f 57f
2:50pm 9 16 mph 1016.7mb - 57f
2:40pm 7 11 mph 1016.9mb - 57f
2:30pm 9 16 mph 1017.2mb - 56f
2:20pm 9 16 mph 1017.3mb - 56f
2:10pm 11 16 mph 1017.4mb - 56f
2:00pm 11 16 mph 1017.6mb 56f 56f
1:50pm 9 16 mph 1017.7mb - 56f
1:40pm 9 16 mph 1017.8mb - 55f
1:30pm 9 16 mph 1017.9mb - 55f
1:20pm 11 16 mph 1018mb - 55f
1:10pm 9 18 mph 1018.1mb - 55f
1:00pm 11 18 mph 1018.3mb 56f 55f
12:50pm 9 18 mph 1018.4mb - 54f
12:40pm 9 13 mph 1018.6mb - 54f
12:30pm 7 13 mph 1018.7mb - 54f
12:20pm 7 11 mph 1018.8mb - 53f
12:10pm 9 13 mph 1018.8mb - 53f
12:00pm 9 13 mph 1018.8mb 55f 52f
11:50am 9 13 mph 1018.8mb - 52f
11:40am 9 16 mph 1019mb - 51f
11:30am 9 16 mph 1019.2mb - 51f
11:20am 13 16 mph 1019.3mb - 50f
11:10am 11 16 mph 1019.4mb - 50f
11:00am 11 20 mph 1019.5mb 55f 50f
10:50am 11 16 mph 1019.5mb - 49f
10:40am 11 16 mph 1019.4mb - 49f
10:30am 11 18 mph 1019.4mb - 49f
10:20am 13 20 mph 1019.5mb - 49f
10:10am 13 20 mph 1019.5mb - 49f
10:00am 16 22 mph 1019.6mb 55f 48f
9:50am 13 18 mph 1019.7mb - 48f
9:40am 13 20 mph 1019.7mb - 48f
9:30am 13 20 mph 1019.6mb - 48f
9:20am 13 20 mph 1019.6mb - 48f
9:10am 13 20 mph 1019.7mb - 48f
9:00am 13 18 mph 1019.8mb 55f 48f
8:50am 13 18 mph 1020mb - 48f
8:40am 13 20 mph 1020mb - 48f
8:30am 13 20 mph 1020mb - 48f
8:20am 13 20 mph 1020mb - 48f
8:10am 13 18 mph 1020mb - 48f
8:00am 11 18 mph 1020.1mb 55f 48f
7:50am 13 18 mph 1020.1mb - 48f
7:40am 11 20 mph 1020.1mb - 48f
7:30am 11 18 mph 1020mb - 48f
7:20am 13 20 mph 1020mb - 48f
7:10am 16 22 mph 1019.8mb - 48f
7:00am 11 18 mph 1019.9mb 55f 49f
6:50am 13 20 mph 1019.9mb - 49f
6:40am 13 18 mph 1019.7mb - 49f
6:30am 11 18 mph 1019.5mb - 49f
6:20am 13 18 mph 1019.7mb - 49f
6:10am 11 16 mph 1019.7mb - 49f
6:00am 11 16 mph 1019.6mb 55f 49f
5:50am 11 13 mph 1019.6mb - 49f
5:40am 11 16 mph 1019.5mb - 49f
5:30am 11 16 mph 1019.4mb - 49f
5:20am 9 13 mph 1019.3mb - 48f
5:10am 9 11 mph 1019.4mb - 48f
5:00am 9 13 mph 1019.3mb 55f 48f
4:50am 9 13 mph 1019.2mb - 48f
4:40am 9 13 mph 1019.2mb - 48f
4:30am 9 13 mph 1019.1mb - 48f
4:20am 11 16 mph 1019.1mb - 48f
4:10am 11 16 mph 1019.3mb - 47f
4:00am 9 13 mph 1019.4mb 55f 47f
3:50am 11 18 mph 1019.5mb - 48f
3:40am 11 22 mph 1019.5mb - 47f
3:30am 11 18 mph 1019.8mb - 48f
3:20am 13 20 mph 1019.9mb - 48f
3:10am 13 22 mph 1020mb - 48f
3:00am 13 20 mph 1020.3mb 55f 48f
2:50am 11 16 mph 1020.4mb - 48f
2:40am 11 20 mph 1020.5mb - 48f
2:30am 13 18 mph 1020.8mb - 48f
2:20am 11 18 mph 1021.1mb - 48f
2:10am 11 16 mph 1021.3mb - 48f
2:00am 11 18 mph 1021.4mb 55f 48f
1:50am 11 16 mph 1021.6mb - 48f
1:40am 11 16 mph 1021.7mb - 48f